createdAt,value
2018-12-22T00:00:01.938Z,58.90
2018-12-22T00:00:33.024Z,59.60
2018-12-22T00:01:04.085Z,58.80
2018-12-22T00:01:35.167Z,58.90
2018-12-22T00:02:06.305Z,58.90
2018-12-22T00:02:37.344Z,58.90
2018-12-22T00:03:08.383Z,58.90
2018-12-22T00:03:39.428Z,58.90
2018-12-22T00:04:10.485Z,58.90
2018-12-22T00:04:41.533Z,58.90
2018-12-22T00:05:12.567Z,58.90
2018-12-22T00:05:43.642Z,58.90
2018-12-22T00:06:14.757Z,58.90
2018-12-22T00:06:45.802Z,58.90
2018-12-22T00:07:16.867Z,59.00
2018-12-22T00:07:47.896Z,58.90
2018-12-22T00:08:18.932Z,58.90
2018-12-22T00:08:49.999Z,58.90
2018-12-22T00:09:21.052Z,58.90
2018-12-22T00:09:52.121Z,58.90
2018-12-22T00:10:24.067Z,58.90
2018-12-22T00:10:55.109Z,59.50
2018-12-22T00:11:26.169Z,58.90
2018-12-22T00:11:57.235Z,58.90
2018-12-22T00:12:28.354Z,58.90
2018-12-22T00:12:59.468Z,58.90
2018-12-22T00:13:30.593Z,58.80
2018-12-22T00:14:01.643Z,58.70
2018-12-22T00:14:32.785Z,58.80
2018-12-22T00:15:03.867Z,58.90
2018-12-22T00:15:34.954Z,58.80
2018-12-22T00:16:06.052Z,58.90
2018-12-22T00:16:37.135Z,58.90
2018-12-22T00:17:08.178Z,58.90
2018-12-22T00:17:39.236Z,58.90
2018-12-22T00:18:10.299Z,59.00
2018-12-22T00:18:41.344Z,59.00
2018-12-22T00:19:12.416Z,58.90
2018-12-22T00:19:43.471Z,59.00
2018-12-22T00:20:14.507Z,58.90
2018-12-22T00:20:45.550Z,58.90
2018-12-22T00:21:16.632Z,58.90
2018-12-22T00:21:47.699Z,59.00
2018-12-22T00:22:18.748Z,58.90
2018-12-22T00:22:49.783Z,58.90
2018-12-22T00:23:20.850Z,58.90
2018-12-22T00:23:51.886Z,59.00
2018-12-22T00:24:22.920Z,58.90
2018-12-22T00:24:53.976Z,58.90
2018-12-22T00:25:25.039Z,58.90
2018-12-22T00:25:56.123Z,58.90
2018-12-22T00:26:27.160Z,58.90
2018-12-22T00:26:58.199Z,59.00
2018-12-22T00:27:29.248Z,59.00
2018-12-22T00:28:00.300Z,59.00
2018-12-22T00:28:31.352Z,59.00
2018-12-22T00:29:02.418Z,59.00
2018-12-22T00:29:33.475Z,59.00
2018-12-22T00:30:04.546Z,59.00
2018-12-22T00:30:35.571Z,59.00
2018-12-22T00:31:06.688Z,59.00
2018-12-22T00:31:37.740Z,59.00
2018-12-22T00:32:08.783Z,59.00
2018-12-22T00:32:39.818Z,59.00
2018-12-22T00:33:10.868Z,59.00
2018-12-22T00:33:41.920Z,59.70
2018-12-22T00:34:13.040Z,59.00
2018-12-22T00:34:44.408Z,59.00
2018-12-22T00:35:15.508Z,59.00
2018-12-22T00:35:46.536Z,59.00
2018-12-22T00:36:17.624Z,59.00
2018-12-22T00:36:48.679Z,59.00
2018-12-22T00:37:19.743Z,59.10
2018-12-22T00:37:50.898Z,59.00
2018-12-22T00:38:21.935Z,59.10
2018-12-22T00:38:52.975Z,59.00
2018-12-22T00:39:24.011Z,59.00
2018-12-22T00:39:55.064Z,59.10
2018-12-22T00:40:26.158Z,59.00
2018-12-22T00:40:57.191Z,59.00
2018-12-22T00:41:28.239Z,59.10
2018-12-22T00:41:59.295Z,59.70
2018-12-22T00:42:30.335Z,59.10
2018-12-22T00:43:01.380Z,59.10
2018-12-22T00:43:32.411Z,59.10
2018-12-22T00:44:03.448Z,59.10
2018-12-22T00:44:34.591Z,59.10
2018-12-22T00:45:05.716Z,59.20
2018-12-22T00:45:36.791Z,59.20
2018-12-22T00:46:07.861Z,59.20
2018-12-22T00:46:38.951Z,59.10
2018-12-22T00:47:10.060Z,59.00
2018-12-22T00:47:41.140Z,59.00
2018-12-22T00:48:12.209Z,58.90
2018-12-22T00:48:43.220Z,59.20
2018-12-22T00:49:14.266Z,58.90
2018-12-22T00:49:45.323Z,58.90
2018-12-22T00:50:16.367Z,58.90
2018-12-22T00:50:47.411Z,58.80
2018-12-22T00:51:18.543Z,58.80
2018-12-22T00:51:49.590Z,58.90
2018-12-22T00:52:20.734Z,58.90
2018-12-22T00:52:51.847Z,58.80
2018-12-22T00:53:22.909Z,58.80
2018-12-22T00:53:53.956Z,58.80
2018-12-22T00:54:24.995Z,58.80
2018-12-22T00:54:56.035Z,58.80
2018-12-22T00:55:27.116Z,58.80
2018-12-22T00:55:58.159Z,58.80
2018-12-22T00:56:29.199Z,58.80
2018-12-22T00:57:00.255Z,58.80
2018-12-22T00:57:31.324Z,58.80
2018-12-22T00:58:02.408Z,58.80
2018-12-22T00:58:33.445Z,58.80
2018-12-22T00:59:04.489Z,58.80
2018-12-22T00:59:35.535Z,58.80
2018-12-22T01:00:06.612Z,58.70
2018-12-22T01:00:37.705Z,58.70
2018-12-22T01:01:08.815Z,58.80
2018-12-22T01:01:39.863Z,58.80
2018-12-22T01:02:10.915Z,58.70
2018-12-22T01:02:41.954Z,58.70
2018-12-22T01:03:13.015Z,58.70
2018-12-22T01:03:44.059Z,58.70
2018-12-22T01:04:15.105Z,58.70
2018-12-22T01:04:46.168Z,58.70
2018-12-22T01:05:17.195Z,58.80
2018-12-22T01:05:48.252Z,58.70
2018-12-22T01:06:19.288Z,58.80
2018-12-22T01:06:52.606Z,58.70
2018-12-22T01:07:23.346Z,58.70
2018-12-22T01:07:54.438Z,58.70
2018-12-22T01:08:25.476Z,58.80
2018-12-22T01:08:56.515Z,58.80
2018-12-22T01:09:27.572Z,58.80
2018-12-22T01:09:58.704Z,58.80
2018-12-22T01:10:29.748Z,58.80
2018-12-22T01:11:00.831Z,58.90
2018-12-22T01:11:31.856Z,58.90
2018-12-22T01:12:02.932Z,58.90
2018-12-22T01:12:33.998Z,58.80
2018-12-22T01:13:05.054Z,58.80
2018-12-22T01:13:36.087Z,58.80
2018-12-22T01:14:07.146Z,58.80
2018-12-22T01:14:38.200Z,58.80
2018-12-22T01:15:09.239Z,58.80
2018-12-22T01:15:40.280Z,58.70
2018-12-22T01:16:11.326Z,58.80
2018-12-22T01:16:42.365Z,58.80
2018-12-22T01:17:13.409Z,59.20
2018-12-22T01:17:44.443Z,58.90
2018-12-22T01:18:15.487Z,58.80
2018-12-22T01:18:46.562Z,58.80
2018-12-22T01:19:17.652Z,58.80
2018-12-22T01:19:48.694Z,58.80
2018-12-22T01:20:19.764Z,58.80
2018-12-22T01:20:50.842Z,58.80
2018-12-22T01:21:21.920Z,58.90
2018-12-22T01:21:52.963Z,58.80
2018-12-22T01:22:24.048Z,58.90
2018-12-22T01:22:55.121Z,58.90
2018-12-22T01:23:26.176Z,58.90
2018-12-22T01:23:57.219Z,58.90
2018-12-22T01:24:28.267Z,58.90
2018-12-22T01:24:59.364Z,58.90
2018-12-22T01:25:30.407Z,58.90
2018-12-22T01:26:01.464Z,58.90
2018-12-22T01:26:32.507Z,58.90
2018-12-22T01:27:03.543Z,59.00
2018-12-22T01:27:34.583Z,58.90
2018-12-22T01:28:05.625Z,59.00
2018-12-22T01:28:39.483Z,59.00
2018-12-22T01:29:09.772Z,59.00
2018-12-22T01:29:40.816Z,59.00
2018-12-22T01:30:11.883Z,59.10
2018-12-22T01:30:42.932Z,59.10
2018-12-22T01:31:13.979Z,59.10
2018-12-22T01:31:45.017Z,59.00
2018-12-22T01:32:16.079Z,59.10
2018-12-22T01:32:47.111Z,59.10
2018-12-22T01:33:18.155Z,59.10
2018-12-22T01:33:49.194Z,59.10
2018-12-22T01:34:20.265Z,59.10
2018-12-22T01:34:51.308Z,59.10
2018-12-22T01:35:22.348Z,59.20
2018-12-22T01:35:53.407Z,59.10
2018-12-22T01:36:24.479Z,59.10
2018-12-22T01:36:55.589Z,59.10
2018-12-22T01:37:26.724Z,59.20
2018-12-22T01:37:57.761Z,59.20
2018-12-22T01:38:28.795Z,59.90
2018-12-22T01:38:59.847Z,59.30
2018-12-22T01:39:30.895Z,59.20
2018-12-22T01:40:01.937Z,59.20
2018-12-22T01:40:32.997Z,59.10
2018-12-22T01:41:04.148Z,59.10
2018-12-22T01:41:35.203Z,59.00
2018-12-22T01:42:06.223Z,59.00
2018-12-22T01:42:37.274Z,59.60
2018-12-22T01:43:08.411Z,59.00
2018-12-22T01:43:39.449Z,58.90
2018-12-22T01:44:10.587Z,59.60
2018-12-22T01:44:41.632Z,58.90
2018-12-22T01:45:12.676Z,58.90
2018-12-22T01:45:43.724Z,58.90
2018-12-22T01:46:14.811Z,58.80
2018-12-22T01:46:45.843Z,58.80
2018-12-22T01:47:16.882Z,58.80
2018-12-22T01:47:47.917Z,58.90
2018-12-22T01:48:18.962Z,58.80
2018-12-22T01:48:49.995Z,58.80
2018-12-22T01:49:21.068Z,58.80
2018-12-22T01:49:52.103Z,58.80
2018-12-22T01:50:23.152Z,59.10
2018-12-22T01:50:54.228Z,58.80
2018-12-22T01:51:25.320Z,58.70
2018-12-22T01:51:56.364Z,58.80
2018-12-22T01:52:27.408Z,58.80
2018-12-22T01:52:58.465Z,58.80
2018-12-22T01:53:29.511Z,58.80
2018-12-22T01:54:00.552Z,58.80
2018-12-22T01:54:31.596Z,58.80
2018-12-22T01:55:02.635Z,58.80
2018-12-22T01:55:33.756Z,58.80
2018-12-22T01:56:04.792Z,58.80
2018-12-22T01:56:35.851Z,58.80
2018-12-22T01:57:06.884Z,58.80
2018-12-22T01:57:37.923Z,58.80
2018-12-22T01:58:09.003Z,59.10
2018-12-22T01:58:47.622Z,58.80
2018-12-22T01:59:13.068Z,58.70
2018-12-22T01:59:44.108Z,58.80
2018-12-22T02:00:15.151Z,58.70
2018-12-22T02:00:46.211Z,58.70
2018-12-22T02:01:17.268Z,58.80
2018-12-22T02:01:48.327Z,58.80
2018-12-22T02:02:19.376Z,58.80
2018-12-22T02:02:50.452Z,58.80
2018-12-22T02:03:21.459Z,58.80
2018-12-22T02:03:52.512Z,58.80
2018-12-22T02:04:23.571Z,58.90
2018-12-22T02:04:54.616Z,58.90
2018-12-22T02:05:25.660Z,58.90
2018-12-22T02:05:56.711Z,59.00
2018-12-22T02:06:27.769Z,58.90
2018-12-22T02:06:58.815Z,59.00
2018-12-22T02:07:29.846Z,58.90
2018-12-22T02:08:00.892Z,58.90
2018-12-22T02:08:31.964Z,58.90
2018-12-22T02:09:02.972Z,59.00
2018-12-22T02:09:34.012Z,59.00
2018-12-22T02:10:05.051Z,59.00
2018-12-22T02:10:36.090Z,59.10
2018-12-22T02:11:07.143Z,59.00
2018-12-22T02:11:38.204Z,59.00
2018-12-22T02:12:09.279Z,59.00
2018-12-22T02:12:40.328Z,59.00
2018-12-22T02:13:11.369Z,59.00
2018-12-22T02:13:42.419Z,59.00
2018-12-22T02:14:13.454Z,59.00
2018-12-22T02:14:44.491Z,59.00
2018-12-22T02:15:15.566Z,59.00
2018-12-22T02:15:46.691Z,59.00
2018-12-22T02:16:17.768Z,59.00
2018-12-22T02:16:48.820Z,59.00
2018-12-22T02:17:19.896Z,59.00
2018-12-22T02:17:50.960Z,59.00
2018-12-22T02:18:22.012Z,59.00
2018-12-22T02:18:53.051Z,58.90
2018-12-22T02:19:24.092Z,59.00
2018-12-22T02:19:55.132Z,59.00
2018-12-22T02:20:26.172Z,59.00
2018-12-22T02:20:57.211Z,59.00
2018-12-22T02:21:28.268Z,59.00
2018-12-22T02:21:59.293Z,59.00
2018-12-22T02:22:30.335Z,59.00
2018-12-22T02:23:01.415Z,59.00
2018-12-22T02:23:32.496Z,59.00
2018-12-22T02:24:03.534Z,59.00
2018-12-22T02:24:34.668Z,59.00
2018-12-22T02:25:05.743Z,59.00
2018-12-22T02:25:36.803Z,59.00
2018-12-22T02:26:07.860Z,59.10
2018-12-22T02:26:38.952Z,59.00
2018-12-22T02:27:09.989Z,59.00
2018-12-22T02:27:41.052Z,59.00
2018-12-22T02:28:12.112Z,59.00
2018-12-22T02:28:43.240Z,59.00
2018-12-22T02:29:14.280Z,59.00
2018-12-22T02:29:45.315Z,59.80
2018-12-22T02:30:16.360Z,59.00
2018-12-22T02:30:47.408Z,59.00
2018-12-22T02:31:18.527Z,59.00
2018-12-22T02:31:49.576Z,59.00
2018-12-22T02:32:20.618Z,59.10
2018-12-22T02:32:51.735Z,59.10
2018-12-22T02:33:22.780Z,59.00
2018-12-22T02:33:53.823Z,59.10
2018-12-22T02:34:24.976Z,59.00
2018-12-22T02:34:56.033Z,59.00
2018-12-22T02:35:27.155Z,59.00
2018-12-22T02:35:58.303Z,59.00
2018-12-22T02:36:29.445Z,58.90
2018-12-22T02:37:00.507Z,58.90
2018-12-22T02:37:31.554Z,58.90
2018-12-22T02:38:02.615Z,58.90
2018-12-22T02:38:33.659Z,58.80
2018-12-22T02:39:04.710Z,58.80
2018-12-22T02:39:35.752Z,58.70
2018-12-22T02:40:06.794Z,58.90
2018-12-22T02:40:37.841Z,58.70
2018-12-22T02:41:08.895Z,58.70
2018-12-22T02:41:40.009Z,58.70
2018-12-22T02:42:11.052Z,58.60
2018-12-22T02:42:42.095Z,58.70
2018-12-22T02:43:13.218Z,58.70
2018-12-22T02:43:44.293Z,58.70
2018-12-22T02:44:15.348Z,58.70
2018-12-22T02:44:46.472Z,58.70
2018-12-22T02:45:17.516Z,58.70
2018-12-22T02:45:48.692Z,58.70
2018-12-22T02:46:19.760Z,58.70
2018-12-22T02:46:50.828Z,58.70
2018-12-22T02:47:21.842Z,58.60
2018-12-22T02:47:52.900Z,58.70
2018-12-22T02:48:23.948Z,58.70
2018-12-22T02:48:55.040Z,58.70
2018-12-22T02:49:26.051Z,58.70
2018-12-22T02:49:57.120Z,58.60
2018-12-22T02:50:28.168Z,58.60
2018-12-22T02:50:59.247Z,58.60
2018-12-22T02:51:30.283Z,58.60
2018-12-22T02:52:01.327Z,58.60
2018-12-22T02:52:32.367Z,58.80
2018-12-22T02:53:03.407Z,58.60
2018-12-22T02:53:34.447Z,58.70
2018-12-22T02:54:05.495Z,58.70
2018-12-22T02:54:36.552Z,58.70
2018-12-22T02:55:07.608Z,58.70
2018-12-22T02:55:38.675Z,58.90
2018-12-22T02:56:09.752Z,58.80
2018-12-22T02:56:40.800Z,58.80
2018-12-22T02:57:11.856Z,58.80
2018-12-22T02:57:42.919Z,58.80
2018-12-22T02:58:13.976Z,58.80
2018-12-22T02:58:45.033Z,58.80
2018-12-22T02:59:16.080Z,58.80
2018-12-22T02:59:47.115Z,58.80
2018-12-22T03:00:18.216Z,58.80
2018-12-22T03:00:49.324Z,58.80
2018-12-22T03:01:20.364Z,58.90
2018-12-22T03:01:51.412Z,58.80
2018-12-22T03:02:22.539Z,58.90
2018-12-22T03:02:53.584Z,58.90
2018-12-22T03:03:24.623Z,58.90
2018-12-22T03:03:55.669Z,58.90
2018-12-22T03:04:26.715Z,59.00
2018-12-22T03:04:57.790Z,59.00
2018-12-22T03:05:28.817Z,58.90
2018-12-22T03:05:59.859Z,59.00
2018-12-22T03:06:30.904Z,59.00
2018-12-22T03:07:01.963Z,59.00
2018-12-22T03:07:33.080Z,59.00
2018-12-22T03:08:04.132Z,59.10
2018-12-22T03:08:35.188Z,59.10
2018-12-22T03:09:06.232Z,59.00
2018-12-22T03:09:37.352Z,59.00
2018-12-22T03:10:08.476Z,59.00
2018-12-22T03:10:39.628Z,58.90
2018-12-22T03:11:10.749Z,59.00
2018-12-22T03:11:41.853Z,58.90
2018-12-22T03:12:12.956Z,58.90
2018-12-22T03:12:44.114Z,58.90
2018-12-22T03:13:15.184Z,58.90
2018-12-22T03:13:46.233Z,58.90
2018-12-22T03:14:17.276Z,59.00
2018-12-22T03:14:48.322Z,58.90
2018-12-22T03:15:19.373Z,58.90
2018-12-22T03:15:50.441Z,58.90
2018-12-22T03:16:21.480Z,58.90
2018-12-22T03:16:52.562Z,58.90
2018-12-22T03:17:23.589Z,58.90
2018-12-22T03:17:54.697Z,59.00
2018-12-22T03:18:25.732Z,58.90
2018-12-22T03:18:56.781Z,59.00
2018-12-22T03:19:27.828Z,58.90
2018-12-22T03:19:58.865Z,59.00
2018-12-22T03:20:29.901Z,59.00
2018-12-22T03:21:00.944Z,59.00
2018-12-22T03:21:31.986Z,58.90
2018-12-22T03:22:03.118Z,59.00
2018-12-22T03:22:34.228Z,58.90
2018-12-22T03:23:05.314Z,58.90
2018-12-22T03:23:36.357Z,59.00
2018-12-22T03:24:07.394Z,59.00
2018-12-22T03:24:38.434Z,58.90
2018-12-22T03:25:09.475Z,58.90
2018-12-22T03:25:40.527Z,58.90
2018-12-22T03:26:11.571Z,58.90
2018-12-22T03:26:42.618Z,58.90
2018-12-22T03:27:13.675Z,59.00
2018-12-22T03:27:44.794Z,58.90
2018-12-22T03:28:15.924Z,58.90
2018-12-22T03:28:46.967Z,58.90
2018-12-22T03:29:18.079Z,58.90
2018-12-22T03:29:49.131Z,58.90
2018-12-22T03:30:20.168Z,58.90
2018-12-22T03:30:51.496Z,58.90
2018-12-22T03:31:22.508Z,58.90
2018-12-22T03:31:53.584Z,59.50
2018-12-22T03:32:24.629Z,58.90
2018-12-22T03:32:55.682Z,58.90
2018-12-22T03:33:26.848Z,59.00
2018-12-22T03:33:57.867Z,58.90
2018-12-22T03:34:28.909Z,58.90
2018-12-22T03:34:59.948Z,58.90
2018-12-22T03:35:31.000Z,58.90
2018-12-22T03:36:02.089Z,58.90
2018-12-22T03:36:33.115Z,58.90
2018-12-22T03:37:04.187Z,58.80
2018-12-22T03:37:35.259Z,58.80
2018-12-22T03:38:06.320Z,58.80
2018-12-22T03:38:37.358Z,58.80
2018-12-22T03:39:08.399Z,58.80
2018-12-22T03:39:39.444Z,58.80
2018-12-22T03:40:10.487Z,58.70
2018-12-22T03:40:41.519Z,58.70
2018-12-22T03:41:12.559Z,58.70
2018-12-22T03:41:43.600Z,58.70
2018-12-22T03:42:14.651Z,58.70
2018-12-22T03:42:45.704Z,58.60
2018-12-22T03:43:16.829Z,58.70
2018-12-22T03:43:47.903Z,58.70
2018-12-22T03:44:19.031Z,58.60
2018-12-22T03:44:50.075Z,58.60
2018-12-22T03:45:21.117Z,58.60
2018-12-22T03:45:52.165Z,58.60
2018-12-22T03:46:23.263Z,58.70
2018-12-22T03:46:54.305Z,58.60
2018-12-22T03:47:25.419Z,58.60
2018-12-22T03:47:56.512Z,58.70
2018-12-22T03:48:27.551Z,58.70
2018-12-22T03:48:58.576Z,58.70
2018-12-22T03:49:29.724Z,58.70
2018-12-22T03:50:00.769Z,58.70
2018-12-22T03:50:31.815Z,58.70
2018-12-22T03:51:02.880Z,59.40
2018-12-22T03:51:34.007Z,58.80
2018-12-22T03:52:05.038Z,58.70
2018-12-22T03:52:36.096Z,58.80
2018-12-22T03:53:07.133Z,58.80
2018-12-22T03:53:38.676Z,58.80
2018-12-22T03:54:09.692Z,58.80
2018-12-22T03:54:40.735Z,58.80
2018-12-22T03:55:11.783Z,58.80
2018-12-22T03:55:42.833Z,58.30
2018-12-22T03:56:13.896Z,58.90
2018-12-22T03:56:44.993Z,58.90
2018-12-22T03:57:16.047Z,58.90
2018-12-22T03:57:47.098Z,58.90
2018-12-22T03:58:18.151Z,59.00
2018-12-22T03:58:49.203Z,59.00
2018-12-22T03:59:24.693Z,58.90
2018-12-22T03:59:53.276Z,59.00
2018-12-22T04:00:24.316Z,59.10
2018-12-22T04:00:55.382Z,59.10
2018-12-22T04:01:26.464Z,59.10
2018-12-22T04:01:57.543Z,59.10
2018-12-22T04:02:28.595Z,59.10
2018-12-22T04:02:59.635Z,59.10
2018-12-22T04:03:30.703Z,59.30
2018-12-22T04:04:01.818Z,59.10
2018-12-22T04:04:32.919Z,59.00
2018-12-22T04:05:03.941Z,59.00
2018-12-22T04:05:34.979Z,59.10
2018-12-22T04:06:06.032Z,59.10
2018-12-22T04:06:37.073Z,59.00
2018-12-22T04:07:08.116Z,59.00
2018-12-22T04:07:39.171Z,59.00
2018-12-22T04:08:10.311Z,59.00
2018-12-22T04:08:41.416Z,59.00
2018-12-22T04:09:12.457Z,59.00
2018-12-22T04:09:43.501Z,59.00
2018-12-22T04:10:14.549Z,59.00
2018-12-22T04:10:45.672Z,59.10
2018-12-22T04:11:16.707Z,59.00
2018-12-22T04:11:47.752Z,59.00
2018-12-22T04:12:18.867Z,59.00
2018-12-22T04:12:49.923Z,59.00
2018-12-22T04:13:20.972Z,59.00
2018-12-22T04:13:52.063Z,59.10
2018-12-22T04:14:23.144Z,59.00
2018-12-22T04:14:54.247Z,59.00
2018-12-22T04:15:25.275Z,59.00
2018-12-22T04:15:56.315Z,59.00
2018-12-22T04:16:27.360Z,59.00
2018-12-22T04:16:58.404Z,58.90
2018-12-22T04:17:29.453Z,59.40
2018-12-22T04:18:00.586Z,59.00
2018-12-22T04:18:31.715Z,59.00
2018-12-22T04:19:02.747Z,58.90
2018-12-22T04:19:33.792Z,58.90
2018-12-22T04:20:04.913Z,58.90
2018-12-22T04:20:36.028Z,58.90
2018-12-22T04:21:07.143Z,58.90
2018-12-22T04:21:38.204Z,58.90
2018-12-22T04:22:09.244Z,58.90
2018-12-22T04:22:40.295Z,58.90
2018-12-22T04:23:11.364Z,59.00
2018-12-22T04:23:42.416Z,58.90
2018-12-22T04:24:13.472Z,58.90
2018-12-22T04:24:44.532Z,58.90
2018-12-22T04:25:15.583Z,58.90
2018-12-22T04:25:46.625Z,58.90
2018-12-22T04:26:17.686Z,59.50
2018-12-22T04:26:48.744Z,58.90
2018-12-22T04:27:19.773Z,58.90
2018-12-22T04:27:50.840Z,58.60
2018-12-22T04:28:21.968Z,58.90
2018-12-22T04:28:53.008Z,58.90
2018-12-22T04:29:24.068Z,58.90
2018-12-22T04:29:55.150Z,58.90
2018-12-22T04:30:26.240Z,58.90
2018-12-22T04:30:57.291Z,58.90
2018-12-22T04:31:28.327Z,58.90
2018-12-22T04:31:59.402Z,58.90
2018-12-22T04:32:30.550Z,59.00
2018-12-22T04:33:01.604Z,58.90
2018-12-22T04:33:32.652Z,59.00
2018-12-22T04:34:03.736Z,59.00
2018-12-22T04:34:34.772Z,59.00
2018-12-22T04:35:05.861Z,59.10
2018-12-22T04:35:36.967Z,59.00
2018-12-22T04:36:08.098Z,59.00
2018-12-22T04:36:39.136Z,58.90
2018-12-22T04:37:10.191Z,59.00
2018-12-22T04:37:41.275Z,59.00
2018-12-22T04:38:12.315Z,59.20
2018-12-22T04:38:43.364Z,58.90
2018-12-22T04:39:14.428Z,59.00
2018-12-22T04:39:45.472Z,59.00
2018-12-22T04:40:16.567Z,58.90
2018-12-22T04:40:47.627Z,58.90
2018-12-22T04:41:18.679Z,59.00
2018-12-22T04:41:49.764Z,59.00
2018-12-22T04:42:20.883Z,59.00
2018-12-22T04:42:52.126Z,59.00
2018-12-22T04:43:23.159Z,59.00
2018-12-22T04:43:54.247Z,59.10
2018-12-22T04:44:25.288Z,59.00
2018-12-22T04:44:56.307Z,59.10
2018-12-22T04:45:27.343Z,59.10
2018-12-22T04:45:58.389Z,59.10
2018-12-22T04:46:29.447Z,59.20
2018-12-22T04:47:00.492Z,59.10
2018-12-22T04:47:31.533Z,59.10
2018-12-22T04:48:42.881Z,59.20
2018-12-22T04:49:13.996Z,59.20
2018-12-22T04:49:45.101Z,59.10
2018-12-22T04:50:16.346Z,59.10
2018-12-22T04:50:47.491Z,59.20
2018-12-22T04:51:19.079Z,59.20
2018-12-22T04:51:50.319Z,59.20
2018-12-22T04:52:21.401Z,59.20
2018-12-22T04:52:52.515Z,59.20
2018-12-22T04:53:23.627Z,59.20
2018-12-22T04:53:54.757Z,59.30
2018-12-22T04:54:25.899Z,59.20
2018-12-22T04:54:56.996Z,59.30
2018-12-22T04:55:28.135Z,59.30
2018-12-22T04:55:59.291Z,59.30
2018-12-22T04:56:30.376Z,59.40
2018-12-22T04:57:01.484Z,59.30
2018-12-22T04:57:32.961Z,59.50
2018-12-22T04:58:04.080Z,59.40
2018-12-22T04:58:35.208Z,59.50
2018-12-22T04:59:06.328Z,59.50
2018-12-22T04:59:42.945Z,59.60
2018-12-22T05:00:10.627Z,59.50
2018-12-22T05:00:41.962Z,59.50
2018-12-22T05:01:13.084Z,59.50
2018-12-22T05:01:44.295Z,59.40
2018-12-22T05:02:15.476Z,59.40
2018-12-22T05:02:46.596Z,59.50
2018-12-22T05:03:17.725Z,59.40
2018-12-22T05:03:48.848Z,59.30
2018-12-22T05:04:20.008Z,59.30
2018-12-22T05:04:51.122Z,59.30
2018-12-22T05:05:22.369Z,59.30
2018-12-22T05:05:53.516Z,59.70
2018-12-22T05:06:24.717Z,59.30
2018-12-22T05:06:55.838Z,59.20
2018-12-22T05:07:26.992Z,59.40
2018-12-22T05:07:58.115Z,59.20
2018-12-22T05:08:29.259Z,59.20
2018-12-22T05:09:00.383Z,59.20
2018-12-22T05:09:31.606Z,59.20
2018-12-22T05:10:02.716Z,59.20
2018-12-22T05:10:33.861Z,59.20
2018-12-22T05:11:04.979Z,59.10
2018-12-22T05:11:36.082Z,59.10
2018-12-22T05:12:07.188Z,59.20
2018-12-22T05:12:38.358Z,59.10
2018-12-22T05:13:09.561Z,59.10
2018-12-22T05:13:41.059Z,58.60
2018-12-22T05:14:12.198Z,59.10
2018-12-22T05:14:43.397Z,59.10
2018-12-22T05:15:14.691Z,59.10
2018-12-22T05:15:45.986Z,59.10
2018-12-22T05:16:17.117Z,59.10
2018-12-22T05:16:48.254Z,59.10
2018-12-22T05:17:19.793Z,59.20
2018-12-22T05:17:51.053Z,59.10
2018-12-22T05:18:22.287Z,59.10
2018-12-22T05:18:53.482Z,59.10
2018-12-22T05:19:24.606Z,59.10
2018-12-22T05:19:55.721Z,59.10
2018-12-22T05:20:26.931Z,59.10
2018-12-22T05:20:58.199Z,59.10
2018-12-22T05:21:29.558Z,59.10
2018-12-22T05:22:00.664Z,59.00
2018-12-22T05:22:31.776Z,59.10
2018-12-22T05:23:02.902Z,59.10
2018-12-22T05:23:34.003Z,59.00
2018-12-22T05:24:05.150Z,59.10
2018-12-22T05:24:36.344Z,59.10
2018-12-22T05:25:07.506Z,59.10
2018-12-22T05:25:38.654Z,59.20
2018-12-22T05:26:09.799Z,59.20
2018-12-22T05:26:41.011Z,59.30
2018-12-22T05:27:12.159Z,59.30
2018-12-22T05:27:43.254Z,59.30
2018-12-22T05:28:14.367Z,59.30
2018-12-22T05:28:45.496Z,59.30
2018-12-22T05:29:16.618Z,59.30
2018-12-22T05:29:51.820Z,59.30
2018-12-22T05:30:20.831Z,59.30
2018-12-22T05:30:51.987Z,59.30
2018-12-22T05:31:23.058Z,59.30
2018-12-22T05:31:54.289Z,59.30
2018-12-22T05:32:25.416Z,59.30
2018-12-22T05:32:56.527Z,59.30
2018-12-22T05:33:27.649Z,59.30
2018-12-22T05:33:58.927Z,59.30
2018-12-22T05:34:30.358Z,59.30
2018-12-22T05:35:01.680Z,59.30
2018-12-22T05:35:33.158Z,59.30
2018-12-22T05:36:04.248Z,59.30
2018-12-22T05:36:35.352Z,59.30
2018-12-22T05:37:06.461Z,59.30
2018-12-22T05:37:37.565Z,59.30
2018-12-22T05:38:08.672Z,59.30
2018-12-22T05:38:39.856Z,59.30
2018-12-22T05:39:11.008Z,59.40
2018-12-22T05:39:42.460Z,59.40
2018-12-22T05:40:13.590Z,59.40
2018-12-22T05:40:44.718Z,59.40
2018-12-22T05:41:15.856Z,59.40
2018-12-22T05:41:46.949Z,59.50
2018-12-22T05:42:18.052Z,59.50
2018-12-22T05:42:49.153Z,59.50
2018-12-22T05:43:20.248Z,59.50
2018-12-22T05:43:51.382Z,59.60
2018-12-22T05:44:22.739Z,59.50
2018-12-22T05:44:53.924Z,59.50
2018-12-22T05:45:25.162Z,59.50
2018-12-22T05:45:56.302Z,59.50
2018-12-22T05:46:27.402Z,59.50
2018-12-22T05:46:58.513Z,59.50
2018-12-22T05:47:29.611Z,59.50
2018-12-22T05:48:00.717Z,59.50
2018-12-22T05:48:31.845Z,59.50
2018-12-22T05:49:02.950Z,59.50
2018-12-22T05:49:34.059Z,59.50
2018-12-22T05:50:05.170Z,59.50
2018-12-22T05:50:36.282Z,59.50
2018-12-22T05:51:07.387Z,59.60
2018-12-22T05:51:38.507Z,59.50
2018-12-22T05:52:09.718Z,59.50
2018-12-22T05:52:40.810Z,59.50
2018-12-22T05:53:11.918Z,59.50
2018-12-22T05:53:43.031Z,59.50
2018-12-22T05:54:14.151Z,59.50
2018-12-22T05:54:45.250Z,59.50
2018-12-22T05:55:16.359Z,59.50
2018-12-22T05:55:47.473Z,59.60
2018-12-22T05:56:18.580Z,59.60
2018-12-22T05:56:49.679Z,59.60
2018-12-22T05:57:20.837Z,59.60
2018-12-22T05:57:51.995Z,59.60
2018-12-22T05:58:23.103Z,59.50
2018-12-22T05:58:54.200Z,59.50
2018-12-22T05:59:25.323Z,59.50
2018-12-22T06:00:00.350Z,59.40
2018-12-22T06:00:29.563Z,59.40
2018-12-22T06:01:00.683Z,59.30
2018-12-22T06:01:31.785Z,59.30
2018-12-22T06:02:02.900Z,59.30
2018-12-22T06:02:34.014Z,59.30
2018-12-22T06:03:05.108Z,59.30
2018-12-22T06:03:36.269Z,59.30
2018-12-22T06:04:07.366Z,59.30
2018-12-22T06:04:38.538Z,59.30
2018-12-22T06:05:09.648Z,59.30
2018-12-22T06:05:40.789Z,59.30
2018-12-22T06:06:11.899Z,59.30
2018-12-22T06:06:43.145Z,59.20
2018-12-22T06:07:14.243Z,59.20
2018-12-22T06:07:45.430Z,59.50
2018-12-22T06:08:16.538Z,59.20
2018-12-22T06:08:47.665Z,59.20
2018-12-22T06:09:19.061Z,59.20
2018-12-22T06:09:50.194Z,59.20
2018-12-22T06:10:21.327Z,59.20
2018-12-22T06:10:52.474Z,59.20
2018-12-22T06:11:23.594Z,59.20
2018-12-22T06:11:54.748Z,59.20
2018-12-22T06:12:25.899Z,59.20
2018-12-22T06:12:57.111Z,59.20
2018-12-22T06:13:28.292Z,59.90
2018-12-22T06:13:59.570Z,59.30
2018-12-22T06:14:30.693Z,59.20
2018-12-22T06:15:01.803Z,59.30
2018-12-22T06:15:33.090Z,59.20
2018-12-22T06:16:04.196Z,59.20
2018-12-22T06:16:35.331Z,59.30
2018-12-22T06:17:06.467Z,59.20
2018-12-22T06:17:37.579Z,59.30
2018-12-22T06:18:08.715Z,59.90
2018-12-22T06:18:39.815Z,59.30
2018-12-22T06:19:10.923Z,59.30
2018-12-22T06:19:42.079Z,59.30
2018-12-22T06:20:13.210Z,59.30
2018-12-22T06:20:44.336Z,59.30
2018-12-22T06:21:15.427Z,59.30
2018-12-22T06:21:46.561Z,59.30
2018-12-22T06:22:17.672Z,59.30
2018-12-22T06:22:48.893Z,59.40
2018-12-22T06:23:20.147Z,60.10
2018-12-22T06:23:51.316Z,59.40
2018-12-22T06:24:22.441Z,59.50
2018-12-22T06:24:53.573Z,59.50
2018-12-22T06:25:24.817Z,59.40
2018-12-22T06:25:56.007Z,59.40
2018-12-22T06:26:27.121Z,59.50
2018-12-22T06:26:58.279Z,59.50
2018-12-22T06:27:29.501Z,59.50
2018-12-22T06:28:00.605Z,59.40
2018-12-22T06:28:31.767Z,59.40
2018-12-22T06:29:02.924Z,59.40
2018-12-22T06:29:34.121Z,59.40
2018-12-22T06:30:09.048Z,59.40
2018-12-22T06:30:38.379Z,59.40
2018-12-22T06:31:09.493Z,60.00
2018-12-22T06:31:40.622Z,59.40
2018-12-22T06:32:11.738Z,59.40
2018-12-22T06:32:43.025Z,59.40
2018-12-22T06:33:14.193Z,59.40
2018-12-22T06:33:45.311Z,59.40
2018-12-22T06:34:16.449Z,59.40
2018-12-22T06:34:47.540Z,59.40
2018-12-22T06:35:18.646Z,59.30
2018-12-22T06:35:49.787Z,59.40
2018-12-22T06:36:20.879Z,59.40
2018-12-22T06:36:51.970Z,59.30
2018-12-22T06:37:23.071Z,59.40
2018-12-22T06:37:54.245Z,59.40
2018-12-22T06:38:25.381Z,59.40
2018-12-22T06:38:56.695Z,59.40
2018-12-22T06:39:27.919Z,59.40
2018-12-22T06:39:59.014Z,59.50
2018-12-22T06:40:30.175Z,59.40
2018-12-22T06:41:01.325Z,59.40